sensor_id;sensor_type;location;lat;lon;timestamp;pressure;altitude;pressure_sealevel;temperature
60731;BMP280;46580;52.114;11.674;2022-08-04T00:00:09;100827.88;;;22.68
60731;BMP280;46580;52.114;11.674;2022-08-04T00:05:11;100839.97;;;22.62
60731;BMP280;46580;52.114;11.674;2022-08-04T00:08:06;100828.13;;;22.52
60731;BMP280;46580;52.114;11.674;2022-08-04T00:10:38;100833.75;;;22.49
60731;BMP280;46580;52.114;11.674;2022-08-04T00:13:04;100818.88;;;22.56
60731;BMP280;46580;52.114;11.674;2022-08-04T00:15:32;100813.44;;;22.57
60731;BMP280;46580;52.114;11.674;2022-08-04T00:18:07;100824.50;;;22.53
60731;BMP280;46580;52.114;11.674;2022-08-04T00:20:34;100821.69;;;22.54
60731;BMP280;46580;52.114;11.674;2022-08-04T00:23:02;100809.00;;;22.58
60731;BMP280;46580;52.114;11.674;2022-08-04T00:25:28;100815.75;;;22.46
60731;BMP280;46580;52.114;11.674;2022-08-04T00:27:54;100814.41;;;22.50
60731;BMP280;46580;52.114;11.674;2022-08-04T00:30:19;100814.19;;;22.52
60731;BMP280;46580;52.114;11.674;2022-08-04T00:32:45;100816.38;;;22.48
60731;BMP280;46580;52.114;11.674;2022-08-04T00:35:14;100815.00;;;22.52
60731;BMP280;46580;52.114;11.674;2022-08-04T00:37:39;100817.38;;;22.47
60731;BMP280;46580;52.114;11.674;2022-08-04T00:40:23;100817.75;;;22.44
60731;BMP280;46580;52.114;11.674;2022-08-04T00:43:16;100823.97;;;22.37
60731;BMP280;46580;52.114;11.674;2022-08-04T00:48:32;100820.66;;;22.29
60731;BMP280;46580;52.114;11.674;2022-08-04T01:01:58;100831.06;;;22.22
60731;BMP280;46580;52.114;11.674;2022-08-04T01:10:07;100831.47;;;22.05
60731;BMP280;46580;52.114;11.674;2022-08-04T01:18:45;100830.00;;;21.97
60731;BMP280;46580;52.114;11.674;2022-08-04T01:27:05;100829.63;;;21.71
60731;BMP280;46580;52.114;11.674;2022-08-04T01:29:37;100823.06;;;21.61
60731;BMP280;46580;52.114;11.674;2022-08-04T01:32:26;100827.75;;;21.51
60731;BMP280;46580;52.114;11.674;2022-08-04T01:35:21;100825.31;;;21.50
60731;BMP280;46580;52.114;11.674;2022-08-04T01:37:53;100830.47;;;21.43
60731;BMP280;46580;52.114;11.674;2022-08-04T01:40:22;100828.16;;;21.34
60731;BMP280;46580;52.114;11.674;2022-08-04T01:42:52;100829.22;;;21.25
60731;BMP280;46580;52.114;11.674;2022-08-04T01:45:18;100828.56;;;21.23
60731;BMP280;46580;52.114;11.674;2022-08-04T01:47:52;100826.94;;;21.23
60731;BMP280;46580;52.114;11.674;2022-08-04T01:50:19;100838.44;;;21.22
60731;BMP280;46580;52.114;11.674;2022-08-04T01:52:45;100828.22;;;21.26
60731;BMP280;46580;52.114;11.674;2022-08-04T01:55:12;100828.56;;;21.23
60731;BMP280;46580;52.114;11.674;2022-08-04T01:57:43;100823.72;;;21.21
60731;BMP280;46580;52.114;11.674;2022-08-04T02:00:11;100820.72;;;21.23
60731;BMP280;46580;52.114;11.674;2022-08-04T02:02:37;100828.56;;;21.23
60731;BMP280;46580;52.114;11.674;2022-08-04T02:05:03;100826.84;;;21.16
60731;BMP280;46580;52.114;11.674;2022-08-04T02:07:49;100818.47;;;21.21
60731;BMP280;46580;52.114;11.674;2022-08-04T02:10:46;100820.47;;;21.19
60731;BMP280;46580;52.114;11.674;2022-08-04T02:13:32;100816.69;;;21.21
60731;BMP280;46580;52.114;11.674;2022-08-04T02:18:59;100818.28;;;21.08
60731;BMP280;46580;52.114;11.674;2022-08-04T02:21:26;100816.16;;;21.04
60731;BMP280;46580;52.114;11.674;2022-08-04T02:24:08;100820.06;;;20.93
60731;BMP280;46580;52.114;11.674;2022-08-04T02:26:36;100817.16;;;20.88
60731;BMP280;46580;52.114;11.674;2022-08-04T02:31:58;100812.00;;;20.81
60731;BMP280;46580;52.114;11.674;2022-08-04T02:34:43;100808.75;;;20.79
60731;BMP280;46580;52.114;11.674;2022-08-04T02:37:14;100814.31;;;20.76
60731;BMP280;46580;52.114;11.674;2022-08-04T02:39:42;100813.41;;;20.69
60731;BMP280;46580;52.114;11.674;2022-08-04T02:42:10;100813.72;;;20.74
60731;BMP280;46580;52.114;11.674;2022-08-04T02:44:37;100813.53;;;20.75
60731;BMP280;46580;52.114;11.674;2022-08-04T02:47:03;100814.97;;;20.78
60731;BMP280;46580;52.114;11.674;2022-08-04T02:49:29;100814.88;;;20.71
60731;BMP280;46580;52.114;11.674;2022-08-04T02:51:56;100816.44;;;20.58
60731;BMP280;46580;52.114;11.674;2022-08-04T02:54:27;100809.19;;;20.68
60731;BMP280;46580;52.114;11.674;2022-08-04T02:56:56;100807.47;;;20.89
60731;BMP280;46580;52.114;11.674;2022-08-04T02:59:25;100801.91;;;20.92
60731;BMP280;46580;52.114;11.674;2022-08-04T03:01:54;100805.69;;;20.89
60731;BMP280;46580;52.114;11.674;2022-08-04T03:04:21;100808.47;;;20.74
60731;BMP280;46580;52.114;11.674;2022-08-04T03:07:10;100805.16;;;20.80
60731;BMP280;46580;52.114;11.674;2022-08-04T03:18:30;100806.97;;;20.57
60731;BMP280;46580;52.114;11.674;2022-08-04T03:21:21;100808.88;;;20.63
60731;BMP280;46580;52.114;11.674;2022-08-04T03:24:20;100810.34;;;20.66
60731;BMP280;46580;52.114;11.674;2022-08-04T03:27:02;100804.09;;;20.52
60731;BMP280;46580;52.114;11.674;2022-08-04T03:29:40;100801.38;;;20.46
60731;BMP280;46580;52.114;11.674;2022-08-04T03:32:26;100807.59;;;20.45
60731;BMP280;46580;52.114;11.674;2022-08-04T03:38:14;100803.81;;;20.48
60731;BMP280;46580;52.114;11.674;2022-08-04T03:54:36;100804.22;;;20.37
60731;BMP280;46580;52.114;11.674;2022-08-04T04:00:22;100813.09;;;20.28
60731;BMP280;46580;52.114;11.674;2022-08-04T04:03:10;100814.34;;;20.32
60731;BMP280;46580;52.114;11.674;2022-08-04T04:05:49;100806.81;;;20.37
60731;BMP280;46580;52.114;11.674;2022-08-04T04:16:32;100808.16;;;20.33
60731;BMP280;46580;52.114;11.674;2022-08-04T04:22:24;100813.34;;;20.41
60731;BMP280;46580;52.114;11.674;2022-08-04T04:24:56;100807.72;;;20.22
60731;BMP280;46580;52.114;11.674;2022-08-04T04:30:28;100801.88;;;20.42
60731;BMP280;46580;52.114;11.674;2022-08-04T04:33:07;100808.97;;;20.33
60731;BMP280;46580;52.114;11.674;2022-08-04T04:35:48;100803.72;;;20.41
60731;BMP280;46580;52.114;11.674;2022-08-04T04:46:40;100810.97;;;20.24
60731;BMP280;46580;52.114;11.674;2022-08-04T04:51:49;100812.09;;;20.29
60731;BMP280;46580;52.114;11.674;2022-08-04T04:54:25;100817.28;;;20.37
60731;BMP280;46580;52.114;11.674;2022-08-04T04:57:02;100803.72;;;20.41
60731;BMP280;46580;52.114;11.674;2022-08-04T04:59:34;100810.09;;;20.39
60731;BMP280;46580;52.114;11.674;2022-08-04T05:08:01;100814.75;;;20.65
60731;BMP280;46580;52.114;11.674;2022-08-04T05:13:47;100810.72;;;20.77
60731;BMP280;46580;52.114;11.674;2022-08-04T05:16:36;100825.91;;;21.09
60731;BMP280;46580;52.114;11.674;2022-08-04T05:21:46;100821.91;;;21.35
60731;BMP280;46580;52.114;11.674;2022-08-04T05:24:16;100828.75;;;21.36
60731;BMP280;46580;52.114;11.674;2022-08-04T05:26:55;100824.16;;;21.38
60731;BMP280;46580;52.114;11.674;2022-08-04T05:29:37;100819.66;;;21.46
60731;BMP280;46580;52.114;11.674;2022-08-04T05:32:10;100823.97;;;21.54
60731;BMP280;46580;52.114;11.674;2022-08-04T05:35:04;100827.56;;;21.67
60731;BMP280;46580;52.114;11.674;2022-08-04T05:37:34;100817.69;;;21.83
60731;BMP280;46580;52.114;11.674;2022-08-04T05:40:05;100814.16;;;21.90
60731;BMP280;46580;52.114;11.674;2022-08-04T05:42:32;100818.13;;;22.00
60731;BMP280;46580;52.114;11.674;2022-08-04T05:45:01;100814.94;;;22.25
60731;BMP280;46580;52.114;11.674;2022-08-04T05:47:27;100812.25;;;22.39
60731;BMP280;46580;52.114;11.674;2022-08-04T05:49:54;100822.13;;;22.37
60731;BMP280;46580;52.114;11.674;2022-08-04T05:52:20;100818.00;;;22.49
60731;BMP280;46580;52.114;11.674;2022-08-04T05:54:47;100818.88;;;22.56
60731;BMP280;46580;52.114;11.674;2022-08-04T05:57:14;100816.53;;;22.61
60731;BMP280;46580;52.114;11.674;2022-08-04T05:59:40;100819.88;;;22.75
60731;BMP280;46580;52.114;11.674;2022-08-04T06:02:11;100813.38;;;22.98
60731;BMP280;46580;52.114;11.674;2022-08-04T06:04:39;100813.09;;;22.87
60731;BMP280;46580;52.114;11.674;2022-08-04T06:07:05;100819.16;;;22.88
60731;BMP280;46580;52.114;11.674;2022-08-04T06:09:31;100813.59;;;22.97
60731;BMP280;46580;52.114;11.674;2022-08-04T06:12:03;100813.69;;;23.43
60731;BMP280;46580;52.114;11.674;2022-08-04T06:14:41;100814.44;;;23.76
60731;BMP280;46580;52.114;11.674;2022-08-04T06:17:08;100809.28;;;23.95
60731;BMP280;46580;52.114;11.674;2022-08-04T06:19:36;100806.56;;;23.83
60731;BMP280;46580;52.114;11.674;2022-08-04T06:22:05;100809.00;;;23.78
60731;BMP280;46580;52.114;11.674;2022-08-04T06:24:31;100811.66;;;23.84
60731;BMP280;46580;52.114;11.674;2022-08-04T06:26:57;100810.03;;;23.83
60731;BMP280;46580;52.114;11.674;2022-08-04T06:29:24;100809.59;;;23.86
60731;BMP280;46580;52.114;11.674;2022-08-04T06:32:05;100807.66;;;23.94
60731;BMP280;46580;52.114;11.674;2022-08-04T06:34:51;100815.56;;;24.07
60731;BMP280;46580;52.114;11.674;2022-08-04T06:37:20;100813.38;;;24.10
60731;BMP280;46580;52.114;11.674;2022-08-04T06:39:46;100816.41;;;24.14
60731;BMP280;46580;52.114;11.674;2022-08-04T06:42:11;100805.88;;;24.26
60731;BMP280;46580;52.114;11.674;2022-08-04T06:44:39;100799.25;;;24.43
60731;BMP280;46580;52.114;11.674;2022-08-04T06:47:05;100806.97;;;24.63
60731;BMP280;46580;52.114;11.674;2022-08-04T06:49:31;100808.56;;;24.96
60731;BMP280;46580;52.114;11.674;2022-08-04T06:51:57;100801.28;;;25.04
60731;BMP280;46580;52.114;11.674;2022-08-04T06:54:24;100800.84;;;25.20
60731;BMP280;46580;52.114;11.674;2022-08-04T06:56:50;100800.84;;;25.26
60731;BMP280;46580;52.114;11.674;2022-08-04T06:59:18;100804.06;;;25.35
60731;BMP280;46580;52.114;11.674;2022-08-04T07:01:44;100798.91;;;26.01
60731;BMP280;46580;52.114;11.674;2022-08-04T07:04:11;100803.31;;;26.13
60731;BMP280;46580;52.114;11.674;2022-08-04T07:06:37;100794.69;;;26.00
60731;BMP280;46580;52.114;11.674;2022-08-04T07:09:04;100793.22;;;26.04
60731;BMP280;46580;52.114;11.674;2022-08-04T07:11:32;100787.78;;;26.29
60731;BMP280;46580;52.114;11.674;2022-08-04T07:13:58;100787.41;;;26.26
60731;BMP280;46580;52.114;11.674;2022-08-04T07:16:24;100789.25;;;26.97
60731;BMP280;46580;52.114;11.674;2022-08-04T07:18:49;100783.91;;;27.04
60731;BMP280;46580;52.114;11.674;2022-08-04T07:21:22;100783.00;;;26.92
60731;BMP280;46580;52.114;11.674;2022-08-04T07:23:51;100790.06;;;26.98
60731;BMP280;46580;52.114;11.674;2022-08-04T07:26:18;100784.78;;;26.98
60731;BMP280;46580;52.114;11.674;2022-08-04T07:29:05;100780.19;;;27.11
60731;BMP280;46580;52.114;11.674;2022-08-04T07:34:48;100788.50;;;27.67
60731;BMP280;46580;52.114;11.674;2022-08-04T07:37:14;100786.09;;;27.94
60731;BMP280;46580;52.114;11.674;2022-08-04T07:39:39;100778.19;;;28.05
60731;BMP280;46580;52.114;11.674;2022-08-04T07:42:05;100780.28;;;28.43
60731;BMP280;46580;52.114;11.674;2022-08-04T07:44:31;100778.78;;;28.47
60731;BMP280;46580;52.114;11.674;2022-08-04T07:46:58;100780.63;;;28.47
60731;BMP280;46580;52.114;11.674;2022-08-04T07:49:24;100787.72;;;28.86
60731;BMP280;46580;52.114;11.674;2022-08-04T07:51:51;100776.50;;;29.18
60731;BMP280;46580;52.114;11.674;2022-08-04T07:54:16;100780.66;;;29.48
60731;BMP280;46580;52.114;11.674;2022-08-04T07:56:42;100778.94;;;29.42
60731;BMP280;46580;52.114;11.674;2022-08-04T07:59:08;100779.78;;;29.58
60731;BMP280;46580;52.114;11.674;2022-08-04T08:01:34;100774.41;;;29.53
60731;BMP280;46580;52.114;11.674;2022-08-04T08:04:01;100771.91;;;29.36
60731;BMP280;46580;52.114;11.674;2022-08-04T08:06:29;100766.81;;;29.84
60731;BMP280;46580;52.114;11.674;2022-08-04T08:08:55;100769.31;;;30.18
60731;BMP280;46580;52.114;11.674;2022-08-04T08:11:20;100763.91;;;30.29
60731;BMP280;46580;52.114;11.674;2022-08-04T08:13:45;100758.22;;;30.37
60731;BMP280;46580;52.114;11.674;2022-08-04T08:16:11;100757.75;;;30.56
60731;BMP280;46580;52.114;11.674;2022-08-04T08:18:37;100762.06;;;30.29
60731;BMP280;46580;52.114;11.674;2022-08-04T08:21:03;100762.16;;;30.66
60731;BMP280;46580;52.114;11.674;2022-08-04T08:23:30;100755.75;;;30.79
60731;BMP280;46580;52.114;11.674;2022-08-04T08:25:56;100755.31;;;31.02
60731;BMP280;46580;52.114;11.674;2022-08-04T08:28:22;100750.66;;;30.61
60731;BMP280;46580;52.114;11.674;2022-08-04T08:30:47;100746.00;;;30.68
60731;BMP280;46580;52.114;11.674;2022-08-04T08:33:14;100751.34;;;30.89
60731;BMP280;46580;52.114;11.674;2022-08-04T08:35:47;100752.97;;;31.06
60731;BMP280;46580;52.114;11.674;2022-08-04T08:38:16;100745.75;;;30.85
60731;BMP280;46580;52.114;11.674;2022-08-04T08:40:51;100738.94;;;31.10
60731;BMP280;46580;52.114;11.674;2022-08-04T08:57:57;100730.56;;;32.12
60731;BMP280;46580;52.114;11.674;2022-08-04T09:09:30;100725.38;;;32.62
60731;BMP280;46580;52.114;11.674;2022-08-04T09:12:13;100729.09;;;32.91
60731;BMP280;46580;52.114;11.674;2022-08-04T09:17:40;100724.31;;;32.93
60731;BMP280;46580;52.114;11.674;2022-08-04T09:22:53;100729.19;;;33.16
60731;BMP280;46580;52.114;11.674;2022-08-04T09:25:40;100725.00;;;33.29
60731;BMP280;46580;52.114;11.674;2022-08-04T09:28:14;100729.28;;;33.30
60731;BMP280;46580;52.114;11.674;2022-08-04T09:31:06;100721.19;;;33.76
60731;BMP280;46580;52.114;11.674;2022-08-04T09:33:58;100721.69;;;33.68
60731;BMP280;46580;52.114;11.674;2022-08-04T09:36:39;100716.16;;;33.89
60731;BMP280;46580;52.114;11.674;2022-08-04T09:45:15;100702.28;;;34.21
60731;BMP280;46580;52.114;11.674;2022-08-04T09:47:45;100704.97;;;34.01
60731;BMP280;46580;52.114;11.674;2022-08-04T09:50:29;100703.88;;;34.12
60731;BMP280;46580;52.114;11.674;2022-08-04T10:01:04;100697.72;;;34.31
60731;BMP280;46580;52.114;11.674;2022-08-04T10:03:52;100699.09;;;34.34
60731;BMP280;46580;52.114;11.674;2022-08-04T10:09:20;100691.59;;;34.55
60731;BMP280;46580;52.114;11.674;2022-08-04T10:12:02;100702.03;;;34.57
60731;BMP280;46580;52.114;11.674;2022-08-04T10:17:19;100690.00;;;34.30
60731;BMP280;46580;52.114;11.674;2022-08-04T10:19:52;100687.84;;;34.12
60731;BMP280;46580;52.114;11.674;2022-08-04T10:22:26;100685.19;;;34.22
60731;BMP280;46580;52.114;11.674;2022-08-04T10:25:14;100684.38;;;34.46
60731;BMP280;46580;52.114;11.674;2022-08-04T10:27:50;100684.88;;;34.82
60731;BMP280;46580;52.114;11.674;2022-08-04T10:30:18;100670.66;;;34.91
60731;BMP280;46580;52.114;11.674;2022-08-04T19:59:50;100510.41;;;30.57
60731;BMP280;46580;52.114;11.674;2022-08-04T20:02:53;100504.00;;;30.16
60731;BMP280;46580;52.114;11.674;2022-08-04T20:09:51;100517.63;;;29.87
60731;BMP280;46580;52.114;11.674;2022-08-04T20:12:28;100524.69;;;29.82
60731;BMP280;46580;52.114;11.674;2022-08-04T20:14:54;100528.72;;;29.85
60731;BMP280;46580;52.114;11.674;2022-08-04T20:17:49;100530.50;;;29.95
60731;BMP280;46580;52.114;11.674;2022-08-04T20:20:37;100536.28;;;29.76
60731;BMP280;46580;52.114;11.674;2022-08-04T20:23:23;100539.22;;;29.91
60731;BMP280;46580;52.114;11.674;2022-08-04T20:25:48;100554.63;;;29.78
60731;BMP280;46580;52.114;11.674;2022-08-04T20:28:13;100554.16;;;29.97
60731;BMP280;46580;52.114;11.674;2022-08-04T20:30:39;100556.72;;;29.76
60731;BMP280;46580;52.114;11.674;2022-08-04T20:33:04;100557.91;;;29.68
60731;BMP280;46580;52.114;11.674;2022-08-04T20:35:30;100556.38;;;29.56
60731;BMP280;46580;52.114;11.674;2022-08-04T20:37:57;100558.63;;;29.48
60731;BMP280;46580;52.114;11.674;2022-08-04T20:40:22;100566.34;;;29.49
60731;BMP280;46580;52.114;11.674;2022-08-04T20:42:47;100567.81;;;29.30
60731;BMP280;46580;52.114;11.674;2022-08-04T20:45:15;100561.25;;;29.32
60731;BMP280;46580;52.114;11.674;2022-08-04T20:47:40;100568.50;;;29.25
60731;BMP280;46580;52.114;11.674;2022-08-04T20:50:06;100568.41;;;29.04
60731;BMP280;46580;52.114;11.674;2022-08-04T20:52:33;100565.78;;;28.93
60731;BMP280;46580;52.114;11.674;2022-08-04T20:55:02;100572.47;;;28.84
60731;BMP280;46580;52.114;11.674;2022-08-04T20:57:27;100571.44;;;28.85
60731;BMP280;46580;52.114;11.674;2022-08-04T20:59:53;100571.13;;;28.82
60731;BMP280;46580;52.114;11.674;2022-08-04T21:02:18;100571.34;;;28.80
60731;BMP280;46580;52.114;11.674;2022-08-04T21:04:45;100564.88;;;28.88
60731;BMP280;46580;52.114;11.674;2022-08-04T21:07:10;100565.94;;;28.75
60731;BMP280;46580;52.114;11.674;2022-08-04T21:09:38;100573.75;;;28.71
60731;BMP280;46580;52.114;11.674;2022-08-04T21:12:05;100567.38;;;28.55
60731;BMP280;46580;52.114;11.674;2022-08-04T21:14:31;100558.72;;;28.60
60731;BMP280;46580;52.114;11.674;2022-08-04T21:16:58;100570.25;;;28.54
60731;BMP280;46580;52.114;11.674;2022-08-04T21:19:27;100560.50;;;28.43
60731;BMP280;46580;52.114;11.674;2022-08-04T21:21:52;100567.41;;;28.22
60731;BMP280;46580;52.114;11.674;2022-08-04T21:24:19;100569.03;;;28.23
60731;BMP280;46580;52.114;11.674;2022-08-04T21:26:47;100559.00;;;28.02
60731;BMP280;46580;52.114;11.674;2022-08-04T21:29:13;100558.84;;;27.98
60731;BMP280;46580;52.114;11.674;2022-08-04T21:31:39;100563.94;;;27.88
60731;BMP280;46580;52.114;11.674;2022-08-04T21:34:04;100562.91;;;28.00
60731;BMP280;46580;52.114;11.674;2022-08-04T21:36:29;100566.91;;;27.69
60731;BMP280;46580;52.114;11.674;2022-08-04T21:38:55;100559.38;;;27.55
60731;BMP280;46580;52.114;11.674;2022-08-04T21:41:20;100557.16;;;27.52
60731;BMP280;46580;52.114;11.674;2022-08-04T21:43:46;100561.41;;;27.42
60731;BMP280;46580;52.114;11.674;2022-08-04T21:46:11;100561.75;;;27.45
60731;BMP280;46580;52.114;11.674;2022-08-04T21:48:37;100571.69;;;27.61
60731;BMP280;46580;52.114;11.674;2022-08-04T21:51:17;100572.13;;;27.58
60731;BMP280;46580;52.114;11.674;2022-08-04T21:53:46;100575.19;;;27.43
60731;BMP280;46580;52.114;11.674;2022-08-04T21:56:11;100574.28;;;27.49
60731;BMP280;46580;52.114;11.674;2022-08-04T21:58:37;100581.78;;;27.63
60731;BMP280;46580;52.114;11.674;2022-08-04T22:01:05;100573.16;;;27.57
60731;BMP280;46580;52.114;11.674;2022-08-04T22:03:32;100578.66;;;27.44
60731;BMP280;46580;52.114;11.674;2022-08-04T22:05:57;100577.81;;;27.32
60731;BMP280;46580;52.114;11.674;2022-08-04T22:08:24;100579.56;;;27.38
60731;BMP280;46580;52.114;11.674;2022-08-04T22:10:49;100584.50;;;27.35
60731;BMP280;46580;52.114;11.674;2022-08-04T22:13:15;100591.97;;;27.38
60731;BMP280;46580;52.114;11.674;2022-08-04T22:15:40;100592.91;;;27.43
60731;BMP280;46580;52.114;11.674;2022-08-04T22:18:07;100601.28;;;27.40
60731;BMP280;46580;52.114;11.674;2022-08-04T22:20:33;100599.41;;;27.29
60731;BMP280;46580;52.114;11.674;2022-08-04T22:22:58;100602.50;;;27.26
60731;BMP280;46580;52.114;11.674;2022-08-04T22:25:23;100607.41;;;27.23
60731;BMP280;46580;52.114;11.674;2022-08-04T22:27:49;100604.56;;;27.24
60731;BMP280;46580;52.114;11.674;2022-08-04T22:30:35;100606.88;;;27.21
60731;BMP280;46580;52.114;11.674;2022-08-04T22:33:01;100617.41;;;27.04
60731;BMP280;46580;52.114;11.674;2022-08-04T22:35:27;100619.72;;;26.83
60731;BMP280;46580;52.114;11.674;2022-08-04T22:37:54;100625.16;;;26.87
60731;BMP280;46580;52.114;11.674;2022-08-04T22:40:20;100615.47;;;26.82
60731;BMP280;46580;52.114;11.674;2022-08-04T22:42:46;100620.75;;;26.82
60731;BMP280;46580;52.114;11.674;2022-08-04T22:45:12;100630.16;;;26.60
60731;BMP280;46580;52.114;11.674;2022-08-04T22:47:37;100628.41;;;26.54
60731;BMP280;46580;52.114;11.674;2022-08-04T22:50:03;100634.56;;;26.42
60731;BMP280;46580;52.114;11.674;2022-08-04T22:52:29;100636.69;;;26.34
60731;BMP280;46580;52.114;11.674;2022-08-04T22:54:54;100637.72;;;26.33
60731;BMP280;46580;52.114;11.674;2022-08-04T22:57:20;100640.69;;;26.19
60731;BMP280;46580;52.114;11.674;2022-08-04T22:59:45;100640.53;;;26.14
60731;BMP280;46580;52.114;11.674;2022-08-04T23:02:11;100637.06;;;25.90
60731;BMP280;46580;52.114;11.674;2022-08-04T23:04:37;100631.06;;;25.76
60731;BMP280;46580;52.114;11.674;2022-08-04T23:07:03;100629.53;;;25.63
60731;BMP280;46580;52.114;11.674;2022-08-04T23:09:28;100635.41;;;25.65
60731;BMP280;46580;52.114;11.674;2022-08-04T23:11:54;100639.31;;;25.56
60731;BMP280;46580;52.114;11.674;2022-08-04T23:14:20;100641.03;;;25.44
60731;BMP280;46580;52.114;11.674;2022-08-04T23:16:46;100642.31;;;25.29
60731;BMP280;46580;52.114;11.674;2022-08-04T23:19:12;100637.09;;;25.17
60731;BMP280;46580;52.114;11.674;2022-08-04T23:21:37;100632.97;;;25.33
60731;BMP280;46580;52.114;11.674;2022-08-04T23:24:03;100634.41;;;25.29
60731;BMP280;46580;52.114;11.674;2022-08-04T23:26:29;100628.94;;;25.31
60731;BMP280;46580;52.114;11.674;2022-08-04T23:28:58;100631.84;;;25.10
60731;BMP280;46580;52.114;11.674;2022-08-04T23:31:24;100625.41;;;25.06
60731;BMP280;46580;52.114;11.674;2022-08-04T23:33:50;100628.28;;;24.92
60731;BMP280;46580;52.114;11.674;2022-08-04T23:36:16;100630.69;;;24.94
60731;BMP280;46580;52.114;11.674;2022-08-04T23:38:42;100631.53;;;24.88
60731;BMP280;46580;52.114;11.674;2022-08-04T23:41:12;100626.16;;;25.07
60731;BMP280;46580;52.114;11.674;2022-08-04T23:43:39;100629.78;;;25.25
60731;BMP280;46580;52.114;11.674;2022-08-04T23:46:04;100627.81;;;25.01
60731;BMP280;46580;52.114;11.674;2022-08-04T23:48:30;100620.34;;;24.98
60731;BMP280;46580;52.114;11.674;2022-08-04T23:51:03;100617.72;;;24.98
60731;BMP280;46580;52.114;11.674;2022-08-04T23:53:29;100612.22;;;25.06
60731;BMP280;46580;52.114;11.674;2022-08-04T23:55:55;100610.59;;;25.05
60731;BMP280;46580;52.114;11.674;2022-08-04T23:58:20;100616.50;;;24.95
